Time;durP1;ratioP1;P1;durP2;ratioP2;P2;SDS_P1;SDS_P2;PMS_P1;PMS_P2;Temp;Humidity;BMP_temperature;BMP_pressure;BME280_temperature;BME280_humidity;BME280_pressure;Samples;Min_cycle;Max_cycle;Signal;HPM_P1;HPM_P2
2022/03/07 00:01:34;;;;;;;15.93;7.37;;;;;;;-145.69;64.01;73213.56;5074568;28;20596;-74
2022/03/07 00:04:02;;;;;;;14.53;7.03;;;;;;;-145.69;64.64;73221.53;5074511;28;20230;-74
2022/03/07 00:06:30;;;;;;;15.00;7.60;;;;;;;-145.69;65.28;73217.56;5074370;28;20260;-74
2022/03/07 00:08:58;;;;;;;14.87;7.03;;;;;;;-145.69;63.65;73225.53;5074156;28;20228;-74
2022/03/07 00:11:25;;;;;;;17.47;7.60;;;;;;;-145.69;64.58;73223.53;5074200;28;20207;-73
2022/03/07 00:13:53;;;;;;;14.10;7.47;;;;;;;-145.69;64.11;73237.47;5072234;28;20551;-74
2022/03/07 00:16:21;;;;;;;16.37;7.00;;;;;;;-145.69;65.50;73255.38;5073957;28;20213;-74
2022/03/07 00:18:50;;;;;;;10.23;6.60;;;;;;;-145.69;66.42;73293.22;5073598;28;20202;-74
2022/03/07 00:21:19;;;;;;;17.03;6.93;;;;;;;-145.69;67.80;73295.19;5073738;28;20226;-74
2022/03/07 00:23:45;;;;;;;14.70;7.00;;;;;;;-145.69;67.35;73309.13;5073927;28;20284;-74
2022/03/07 00:26:18;;;;;;;15.93;7.30;;;;;;;-145.69;68.58;73327.06;5073738;28;20199;-74
2022/03/07 00:28:45;;;;;;;12.53;6.87;;;;;;;-145.69;68.93;73352.94;5073883;28;20214;-74
2022/03/07 00:31:16;;;;;;;13.27;7.10;;;;;;;-145.69;68.93;73372.84;5073967;28;20216;-74
2022/03/07 00:33:43;;;;;;;17.20;7.90;;;;;;;-145.69;70.05;73390.75;5073932;28;20210;-74
2022/03/07 00:36:09;;;;;;;13.53;7.60;;;;;;;-145.69;71.55;73400.72;5073645;28;20646;-74
2022/03/07 00:38:36;;;;;;;15.07;7.60;;;;;;;-145.69;71.81;73402.72;5073248;28;20557;-74
2022/03/07 00:41:05;;;;;;;14.17;7.23;;;;;;;-145.69;71.09;73402.72;5073595;28;20680;-74
2022/03/07 00:43:32;;;;;;;14.07;7.50;;;;;;;-145.69;72.18;73428.59;5073755;28;20256;-74
2022/03/07 00:45:59;;;;;;;15.30;7.87;;;;;;;-145.69;73.45;73436.56;5073600;28;20206;-74
2022/03/07 00:48:27;;;;;;;18.23;8.07;;;;;;;-145.69;73.75;73436.56;5073604;28;20205;-74
2022/03/07 00:50:54;;;;;;;16.77;7.80;;;;;;;-145.69;73.68;73444.50;5073363;28;20252;-74
2022/03/07 00:53:22;;;;;;;13.40;7.60;;;;;;;-145.69;73.63;73450.50;5073500;28;20210;-73
2022/03/07 00:55:49;;;;;;;15.77;8.00;;;;;;;-145.69;71.56;73386.78;5073334;28;20203;-73
2022/03/07 00:58:15;;;;;;;15.97;8.43;;;;;;;-145.69;71.57;73404.69;5088343;28;20766;-74
2022/03/07 01:00:42;;;;;;;15.33;7.90;;;;;;;-145.69;72.29;73410.66;5093551;28;20556;-73
2022/03/07 01:03:11;;;;;;;14.23;7.40;;;;;;;-145.69;72.58;73428.59;5093553;28;20692;-74
2022/03/07 01:05:41;;;;;;;16.00;7.80;;;;;;;-145.69;73.41;73442.53;5093459;28;20569;-74
2022/03/07 01:08:09;;;;;;;14.77;8.00;;;;;;;-145.69;72.79;73428.59;5093448;28;20204;-74
2022/03/07 01:10:36;;;;;;;14.43;7.70;;;;;;;-145.69;73.74;73444.50;5093310;28;20209;-74
2022/03/07 01:13:03;;;;;;;15.50;7.97;;;;;;;-145.69;75.25;73468.41;5093313;28;20205;-74
2022/03/07 01:15:32;;;;;;;14.43;7.50;;;;;;;-145.69;74.66;73466.41;5093300;28;20208;-74
2022/03/07 01:18:00;;;;;;;13.73;7.47;;;;;;;-145.69;74.96;73476.38;5093251;28;20202;-74
2022/03/07 01:20:29;;;;;;;15.43;7.67;;;;;;;-145.69;75.57;73486.31;5093148;28;20317;-73
2022/03/07 01:22:58;;;;;;;13.97;7.87;;;;;;;-145.69;76.40;73486.31;5092984;28;20231;-74
2022/03/07 01:25:27;;;;;;;13.38;7.78;;;;;;;-145.69;76.36;73496.28;5093226;28;20444;-74
2022/03/07 01:27:53;;;;;;;14.50;7.90;;;;;;;-145.69;76.23;73504.25;5093157;28;20202;-74
2022/03/07 01:30:20;;;;;;;16.37;8.53;;;;;;;-145.69;76.69;73496.28;5092532;28;20198;-74
2022/03/07 01:32:47;;;;;;;17.97;8.60;;;;;;;-145.69;78.04;73520.16;5092990;28;20202;-73
2022/03/07 01:35:13;;;;;;;19.07;8.67;;;;;;;-145.69;77.63;73512.22;5093252;28;20202;-74
2022/03/07 01:37:40;;;;;;;22.47;8.47;;;;;;;-145.69;76.76;73484.34;5093185;28;20202;-74
2022/03/07 01:40:12;;;;;;;19.23;8.93;;;;;;;-145.69;77.62;73502.25;5093247;28;20676;-74
2022/03/07 01:42:38;;;;;;;17.83;8.57;;;;;;;-145.69;77.26;73486.31;5092989;28;20272;-73
2022/03/07 01:45:10;;;;;;;16.07;8.23;;;;;;;-145.69;77.33;73492.28;5092900;28;20614;-74
2022/03/07 01:47:38;;;;;;;20.63;9.00;;;;;;;-145.69;78.31;73480.34;5092923;28;20671;-73
2022/03/07 01:50:08;;;;;;;21.73;8.83;;;;;;;-145.69;77.32;73480.34;5093000;28;20621;-73
2022/03/07 01:52:38;;;;;;;17.43;9.30;;;;;;;-145.69;77.50;73502.25;5092957;28;20289;-74
2022/03/07 01:55:10;;;;;;;18.80;8.40;;;;;;;-145.69;78.92;73522.16;5092887;28;20209;-74
2022/03/07 01:57:37;;;;;;;16.20;8.93;;;;;;;-145.69;80.53;73540.06;5092663;28;20198;-73
2022/03/07 02:00:06;;;;;;;18.20;8.70;;;;;;;-145.69;79.44;73508.22;5093003;28;20531;-73
2022/03/07 02:02:32;;;;;;;17.17;8.97;;;;;;;-145.69;79.79;73522.16;5092798;28;20236;-74
2022/03/07 02:04:59;;;;;;;14.87;7.70;;;;;;;-145.69;80.42;73542.06;5093229;28;20310;-73
2022/03/07 02:07:26;;;;;;;20.35;11.55;;;;;;;-145.69;79.96;73540.06;5091577;28;20443;-74
2022/03/07 02:09:55;;;;;;;18.90;8.50;;;;;;;-145.69;82.44;73579.91;5092685;28;20542;-74
2022/03/07 02:12:25;;;;;;;22.40;8.57;;;;;;;-145.69;82.93;73611.75;5092841;28;20293;-74
2022/03/07 02:14:52;;;;;;;16.50;8.80;;;;;;;-145.69;84.73;73607.78;5093115;28;20205;-74
2022/03/07 02:17:18;;;;;;;19.07;10.10;;;;;;;-145.69;84.42;73595.81;5092707;28;20297;-74
2022/03/07 02:19:45;;;;;;;20.50;9.70;;;;;;;-145.69;85.07;73619.72;5092577;28;20256;-73
2022/03/07 02:22:15;;;;;;;18.97;9.33;;;;;;;-145.69;85.59;73617.72;5092526;28;20711;-74
2022/03/07 02:24:42;;;;;;;16.70;9.53;;;;;;;-145.69;85.24;73599.81;5092682;28;20202;-74
2022/03/07 02:27:12;;;;;;;19.57;9.10;;;;;;;-145.69;86.05;73625.69;5092772;28;20198;-74
2022/03/07 02:29:39;;;;;;;19.57;9.17;;;;;;;-145.69;86.64;73631.66;5092675;28;20202;-74
2022/03/07 02:32:15;;;;;;;16.73;8.83;;;;;;;-145.69;86.43;73635.66;5092466;28;20560;-73
2022/03/07 02:34:42;;;;;;;17.70;9.27;;;;;;;-145.69;87.36;73613.75;5092591;28;20202;-74
2022/03/07 02:37:08;;;;;;;20.03;9.30;;;;;;;-145.69;86.66;73615.72;5092928;28;20698;-73
2022/03/07 02:39:36;;;;;;;21.67;9.73;;;;;;;-145.69;86.74;73611.75;5092596;28;20198;-74
2022/03/07 02:42:03;;;;;;;20.90;10.10;;;;;;;-145.69;85.26;73589.84;5095350;28;20209;-73
2022/03/07 02:44:30;;;;;;;20.85;10.68;;;;;;;-145.69;85.71;73601.81;5096010;28;20440;-73
2022/03/07 02:46:56;;;;;;;21.17;10.03;;;;;;;-145.69;85.91;73613.75;5096358;28;20202;-73
2022/03/07 02:49:25;;;;;;;17.10;8.90;;;;;;;-145.69;85.88;73613.75;5096210;28;20194;-73
2022/03/07 02:51:52;;;;;;;18.57;9.53;;;;;;;-145.69;86.44;73597.81;5094604;28;20206;-73
2022/03/07 02:54:18;;;;;;;18.43;8.70;;;;;;;-145.69;86.00;73607.78;5077770;28;20198;-74
2022/03/07 02:56:47;;;;;;;17.60;9.23;;;;;;;-145.69;86.49;73613.75;5075794;28;20206;-73
2022/03/07 02:59:14;;;;;;;20.17;10.33;;;;;;;-145.69;87.43;73623.69;5091858;28;20213;-73
2022/03/07 03:01:43;;;;;;;20.43;10.27;;;;;;;-145.69;87.10;73607.78;5095997;28;20209;-74
2022/03/07 03:04:09;;;;;;;18.37;9.20;;;;;;;-145.69;86.37;73605.78;5095662;28;20688;-73
2022/03/07 03:06:39;;;;;;;22.13;9.53;;;;;;;-145.69;87.79;73613.75;5096077;28;20245;-73
2022/03/07 03:09:05;;;;;;;16.53;9.13;;;;;;;-145.69;88.00;73621.72;5090346;28;20191;-74
2022/03/07 03:11:32;;;;;;;18.37;9.73;;;;;;;-145.69;88.29;73617.72;5086825;28;20206;-74
2022/03/07 03:14:00;;;;;;;23.20;10.60;;;;;;;-145.69;87.82;73607.78;5095708;28;20229;-73
2022/03/07 03:16:27;;;;;;;23.77;10.20;;;;;;;-145.69;87.90;73587.88;5095576;28;20206;-73
2022/03/07 03:18:56;;;;;;;20.60;10.40;;;;;;;-145.69;87.36;73583.88;5082432;28;20206;-74
2022/03/07 03:21:22;;;;;;;20.37;9.73;;;;;;;-145.69;87.46;73583.88;5075321;28;20203;-73
2022/03/07 03:23:51;;;;;;;25.20;10.27;;;;;;;-145.69;89.56;73611.75;5075319;28;20226;-74
2022/03/07 03:26:17;;;;;;;20.37;10.03;;;;;;;-145.69;90.31;73603.78;5075232;28;20203;-74
2022/03/07 03:28:44;;;;;;;19.40;10.00;;;;;;;-145.69;89.36;73599.81;5075085;28;20692;-73
2022/03/07 03:31:12;;;;;;;23.93;9.80;;;;;;;-145.69;90.28;73599.81;5075591;28;20312;-74
2022/03/07 03:33:38;;;;;;;21.13;9.90;;;;;;;-145.69;89.41;73579.91;5075298;28;20248;-74
2022/03/07 03:36:06;;;;;;;17.97;9.40;;;;;;;-145.69;88.84;73567.94;5075222;28;20210;-74
2022/03/07 03:38:32;;;;;;;18.30;9.73;;;;;;;-145.69;88.76;73589.84;5075059;28;20211;-74
2022/03/07 03:41:01;;;;;;;17.50;9.63;;;;;;;-145.69;89.90;73597.81;5074939;28;20199;-74
2022/03/07 03:43:28;;;;;;;18.43;10.17;;;;;;;-145.69;90.38;73599.81;5074844;28;20257;-74
2022/03/07 03:45:54;;;;;;;22.07;10.13;;;;;;;-145.69;91.47;73613.75;5074690;28;20252;-73
2022/03/07 03:48:22;;;;;;;15.77;9.17;;;;;;;-145.69;91.50;73619.72;5075081;28;20203;-73
2022/03/07 03:50:49;;;;;;;19.87;10.33;;;;;;;-145.69;92.33;73631.66;5074640;28;20596;-74
2022/03/07 03:53:15;;;;;;;22.50;10.10;;;;;;;-145.69;92.74;73615.72;5074041;28;20199;-74
2022/03/07 03:55:42;;;;;;;22.63;10.60;;;;;;;-145.69;92.55;73639.63;5074685;28;20205;-73
2022/03/07 03:58:08;;;;;;;23.10;10.73;;;;;;;-145.69;93.14;73621.72;5081457;28;20656;-74
2022/03/07 04:00:35;;;;;;;25.00;11.23;;;;;;;-145.69;92.96;73619.72;5094608;28;20209;-74
2022/03/07 04:03:01;;;;;;;21.23;11.13;;;;;;;-145.69;93.44;73629.66;5094835;28;20249;-74
2022/03/07 04:05:29;;;;;;;21.23;10.73;;;;;;;-145.69;93.68;73625.69;5094793;28;20198;-74
2022/03/07 04:07:56;;;;;;;23.97;11.03;;;;;;;-145.69;93.47;73631.66;5094722;28;20206;-74
2022/03/07 04:10:25;;;;;;;21.60;9.87;;;;;;;-145.69;94.01;73647.59;5094651;28;20225;-74
2022/03/07 04:12:54;;;;;;;24.80;9.97;;;;;;;-145.69;95.21;73653.56;5094481;28;20197;-74
2022/03/07 04:15:21;;;;;;;22.60;10.77;;;;;;;-145.69;95.71;73683.44;5094641;28;20205;-74
2022/03/07 04:17:49;;;;;;;20.97;10.83;;;;;;;-145.69;95.08;73649.59;5094380;28;20198;-74
2022/03/07 04:20:16;;;;;;;20.40;10.33;;;;;;;-145.69;95.07;73647.59;5094010;28;20619;-74
2022/03/07 04:22:43;;;;;;;25.30;11.33;;;;;;;-145.69;95.67;73645.59;5094219;28;20745;-74
2022/03/07 04:25:11;;;;;;;23.10;10.93;;;;;;;-145.69;95.11;73643.59;5094357;28;20198;-74
2022/03/07 04:27:37;;;;;;;24.40;11.30;;;;;;;-145.69;95.20;73641.63;5094064;28;20201;-74
2022/03/07 04:30:07;;;;;;;22.57;10.63;;;;;;;-145.69;94.08;73641.63;5094333;28;20198;-74
2022/03/07 04:32:36;;;;;;;24.10;10.47;;;;;;;-145.69;94.40;73635.66;5094208;28;20573;-75
2022/03/07 04:35:05;;;;;;;22.83;11.07;;;;;;;-145.69;94.90;73647.59;5094288;28;20202;-74
2022/03/07 04:37:32;;;;;;;21.67;9.93;;;;;;;-145.69;96.16;73671.47;5094137;28;20202;-74
2022/03/07 04:40:01;;;;;;;19.37;9.60;;;;;;;-145.69;97.90;73695.38;5093939;28;20206;-74
2022/03/07 04:42:28;;;;;;;21.87;10.83;;;;;;;-145.69;95.99;73675.47;5094238;28;20194;-74
2022/03/07 04:44:54;;;;;;;20.70;11.10;;;;;;;-145.69;96.57;73685.41;5093998;28;20202;-74
2022/03/07 04:47:21;;;;;;;26.60;11.20;;;;;;;-145.69;96.94;73673.47;5094012;28;20207;-74
2022/03/07 04:49:47;;;;;;;24.40;10.30;;;;;;;-145.69;97.19;73671.47;5093940;28;20194;-74
2022/03/07 04:52:14;;;;;;;22.73;10.73;;;;;;;-145.69;95.59;73677.47;5093855;28;20201;-74
2022/03/07 04:54:44;;;;;;;21.87;10.10;;;;;;;-145.69;97.20;73667.50;5093654;28;20204;-74
2022/03/07 04:57:12;;;;;;;25.43;11.17;;;;;;;-145.69;95.74;73667.50;5093956;28;20255;-74
2022/03/07 04:59:38;;;;;;;23.13;11.17;;;;;;;-145.69;96.19;73669.50;5093777;28;20645;-75
2022/03/07 05:02:09;;;;;;;24.43;11.47;;;;;;;-145.69;96.75;73677.47;5093561;28;20675;-74
2022/03/07 05:04:35;;;;;;;23.27;10.90;;;;;;;-145.69;96.94;73695.38;5093612;28;20225;-74
2022/03/07 05:07:02;;;;;;;22.10;10.70;;;;;;;-145.69;97.54;73719.25;5093605;28;20209;-75
2022/03/07 05:09:28;;;;;;;24.63;10.63;;;;;;;-145.69;99.16;73731.22;5093839;28;20194;-75
2022/03/07 05:11:55;;;;;;;23.40;11.07;;;;;;;-145.69;100.00;73739.19;5093645;28;20202;-75
2022/03/07 05:14:22;;;;;;;23.70;11.10;;;;;;;-145.69;100.00;73743.16;5093537;28;20198;-75
2022/03/07 05:16:51;;;;;;;25.37;11.33;;;;;;;-145.69;100.00;73749.13;5093468;28;20202;-75
2022/03/07 05:19:19;;;;;;;23.87;10.60;;;;;;;-145.69;100.00;73747.13;5093219;28;20700;-74
2022/03/07 05:21:45;;;;;;;19.83;10.20;;;;;;;-145.69;100.00;73763.06;5083454;28;20202;-74
2022/03/07 05:24:12;;;;;;;21.10;10.17;;;;;;;-145.69;100.00;73757.09;5072881;28;20248;-75
2022/03/07 05:26:38;;;;;;;23.73;10.37;;;;;;;-145.69;100.00;73755.09;5073113;28;20225;-74
2022/03/07 05:29:06;;;;;;;24.53;10.83;;;;;;;-145.69;100.00;73767.06;5073172;28;20214;-75
2022/03/07 05:31:34;;;;;;;20.97;10.83;;;;;;;-145.69;100.00;73763.06;5073046;28;20202;-75
2022/03/07 05:34:00;;;;;;;24.33;11.10;;;;;;;-145.69;100.00;73751.13;5072919;28;20199;-75
2022/03/07 05:36:27;;;;;;;27.40;11.33;;;;;;;-145.69;100.00;73767.06;5072912;28;20206;-75
2022/03/07 05:38:53;;;;;;;25.60;10.90;;;;;;;-145.69;100.00;73767.06;5073068;28;20198;-75
2022/03/07 05:41:23;;;;;;;23.83;11.13;;;;;;;-145.69;100.00;73759.09;5073004;28;20292;-75
2022/03/07 05:43:49;;;;;;;21.13;10.43;;;;;;;-145.69;100.00;73763.06;5072707;28;20230;-75
2022/03/07 05:46:16;;;;;;;24.80;10.43;;;;;;;-145.69;100.00;73729.22;5072872;28;20206;-75
2022/03/07 05:48:46;;;;;;;25.00;10.90;;;;;;;-145.69;99.01;73713.28;5072710;28;20654;-75
2022/03/07 05:51:13;;;;;;;24.43;10.97;;;;;;;-145.69;98.21;73725.25;5073021;28;20203;-75
2022/03/07 05:53:45;;;;;;;20.87;10.17;;;;;;;-145.69;98.86;73739.19;5072859;28;20202;-75
2022/03/07 05:56:12;;;;;;;22.50;10.77;;;;;;;-145.69;99.16;73743.16;5072850;28;20202;-75
2022/03/07 05:58:38;;;;;;;21.07;9.67;;;;;;;-145.69;99.88;73735.19;5083905;28;20210;-75
2022/03/07 06:01:06;;;;;;;25.93;10.80;;;;;;;-145.69;98.65;73731.22;5092837;28;20202;-75
2022/03/07 06:03:33;;;;;;;25.00;10.27;;;;;;;-145.69;98.31;73725.25;5092693;28;20321;-75
2022/03/07 06:06:01;;;;;;;21.70;9.77;;;;;;;-145.69;98.46;73727.22;5093000;28;20202;-75
2022/03/07 06:08:27;;;;;;;24.33;10.00;;;;;;;-145.69;97.89;73731.22;5093222;28;20202;-74
2022/03/07 06:10:57;;;;;;;21.77;9.93;;;;;;;-145.69;97.89;73717.28;5092877;28;20209;-74
2022/03/07 06:13:26;;;;;;;22.80;10.37;;;;;;;-145.69;97.73;73719.25;5092780;28;20599;-74
2022/03/07 06:15:52;;;;;;;19.03;9.17;;;;;;;-145.69;96.83;73715.28;5093746;28;20664;-75
2022/03/07 06:18:22;;;;;;;23.00;9.67;;;;;;;-145.69;97.32;73723.25;5096969;28;20201;-75
2022/03/07 06:20:48;;;;;;;20.33;10.17;;;;;;;-145.69;97.63;73707.31;5096374;28;20715;-74
2022/03/07 06:23:19;;;;;;;22.33;9.70;;;;;;;-145.69;97.25;73715.28;5096541;28;20225;-75
2022/03/07 06:25:47;;;;;;;25.03;9.33;;;;;;;-145.69;96.30;73695.38;5096660;28;20201;-74
2022/03/07 06:28:14;;;;;;;23.93;10.73;;;;;;;-145.69;95.96;73689.41;5096481;28;20584;-75
2022/03/07 06:30:44;;;;;;;22.37;10.50;;;;;;;-145.69;95.59;73691.38;5096628;28;20240;-74
2022/03/07 06:33:20;;;;;;;21.70;10.03;;;;;;;-145.69;95.65;73681.44;5096607;28;20202;-74
2022/03/07 06:35:46;;;;;;;22.07;9.93;;;;;;;-145.69;95.75;73679.44;5096561;28;20197;-74
2022/03/07 06:38:13;;;;;;;20.83;10.57;;;;;;;-145.69;94.31;73671.47;5096495;28;20587;-74
2022/03/07 06:40:41;;;;;;;23.77;10.50;;;;;;;-145.69;95.00;73683.44;5096349;28;20612;-74
2022/03/07 06:43:08;;;;;;;24.77;10.37;;;;;;;-145.69;94.67;73683.44;5096181;28;20660;-74
2022/03/07 06:45:37;;;;;;;24.40;10.23;;;;;;;-145.69;94.80;73681.44;5096464;28;20609;-74
2022/03/07 06:48:06;;;;;;;21.80;9.43;;;;;;;-145.69;94.62;73679.44;5096358;28;20216;-74
2022/03/07 06:50:34;;;;;;;21.07;9.40;;;;;;;-145.69;94.72;73671.47;5096297;28;20201;-75
2022/03/07 06:53:06;;;;;;;22.77;9.90;;;;;;;-145.69;94.54;73657.53;5096341;28;20194;-75
2022/03/07 06:55:33;;;;;;;23.63;10.87;;;;;;;-145.69;92.54;73643.59;5096100;28;20293;-74
2022/03/07 06:58:01;;;;;;;20.60;9.80;;;;;;;-145.69;93.31;73645.59;5096134;28;20197;-75
2022/03/07 07:00:28;;;;;;;25.90;10.70;;;;;;;-145.69;91.50;73631.66;5095992;28;20202;-76
2022/03/07 07:02:55;;;;;;;25.30;10.67;;;;;;;-145.69;90.23;73619.72;5095866;28;20752;-76
2022/03/07 07:05:23;;;;;;;21.73;10.13;;;;;;;-145.69;90.43;73617.72;5095844;28;20231;-75
2022/03/07 07:07:52;;;;;;;24.20;10.40;;;;;;;-145.69;91.16;73619.72;5095815;28;20206;-75
2022/03/07 07:10:19;;;;;;;24.30;10.37;;;;;;;-145.69;90.38;73611.75;5095945;28;20200;-75
2022/03/07 07:12:48;;;;;;;24.40;10.63;;;;;;;-145.69;90.14;73599.81;5095890;28;20288;-76
2022/03/07 07:15:17;;;;;;;23.17;9.70;;;;;;;-145.69;89.19;73587.88;5095803;28;20210;-75
2022/03/07 07:17:43;;;;;;;22.83;10.70;;;;;;;-145.69;88.34;73581.88;5091955;28;20194;-75
2022/03/07 07:20:12;;;;;;;23.53;10.27;;;;;;;-145.69;88.14;73591.84;5075250;28;20242;-75
2022/03/07 07:22:40;;;;;;;19.50;10.00;;;;;;;-145.69;87.74;73575.91;5075054;28;20203;-74
2022/03/07 07:25:11;;;;;;;23.47;10.40;;;;;;;-145.69;87.49;73569.94;5075174;28;20226;-75
2022/03/07 07:27:38;;;;;;;27.70;11.03;;;;;;;-145.69;86.97;73563.97;5074149;28;20342;-75
2022/03/07 07:30:07;;;;;;;24.40;10.57;;;;;;;-145.69;87.60;73561.97;5075239;28;20202;-75
2022/03/07 07:32:35;;;;;;;20.60;10.37;;;;;;;-145.69;86.04;73558.00;5075192;28;20203;-75
2022/03/07 07:35:02;;;;;;;23.60;10.03;;;;;;;-145.69;85.58;73548.03;5075563;28;20653;-75
2022/03/07 07:37:31;;;;;;;20.13;9.50;;;;;;;-145.69;85.36;73540.06;5075357;28;20203;-75
2022/03/07 07:39:58;;;;;;;21.27;10.07;;;;;;;-145.69;84.74;73532.13;5075114;28;20560;-75
2022/03/07 07:42:24;;;;;;;21.50;10.27;;;;;;;-145.69;83.29;73514.19;5075096;28;20256;-75
2022/03/07 07:44:55;;;;;;;22.13;9.87;;;;;;;-145.69;84.05;73510.22;5074793;28;20558;-76
2022/03/07 07:47:21;;;;;;;26.70;11.37;;;;;;;-145.69;82.58;73500.25;5074960;28;20199;-75
2022/03/07 07:49:51;;;;;;;26.10;10.93;;;;;;;-145.69;82.50;73484.34;5074790;28;20207;-75
2022/03/07 07:52:18;;;;;;;23.40;10.83;;;;;;;-145.69;82.30;73480.34;5074873;28;20680;-75
2022/03/07 07:54:44;;;;;;;24.13;13.65;;;;;;;-145.69;81.29;73466.41;5074064;28;20915;-75
2022/03/07 07:57:12;;;;;;;26.97;12.60;;;;;;;-145.69;82.06;73458.44;5074735;28;20199;-75
2022/03/07 07:59:39;;;;;;;24.57;11.13;;;;;;;-145.69;79.79;73464.44;5094071;28;20652;-75
2022/03/07 08:02:08;;;;;;;21.93;11.20;;;;;;;-145.69;79.07;73452.47;5094776;28;20205;-75
2022/03/07 08:04:35;;;;;;;19.80;10.37;;;;;;;-145.69;79.72;73456.47;5095023;28;20226;-75
2022/03/07 08:07:03;;;;;;;25.10;10.73;;;;;;;-145.69;79.13;73438.53;5094935;28;20198;-75
2022/03/07 08:09:29;;;;;;;23.90;11.07;;;;;;;-145.69;78.28;73432.56;5094625;28;20538;-75
2022/03/07 08:11:59;;;;;;;22.87;10.83;;;;;;;-145.69;78.58;73422.63;5094657;28;20206;-75
2022/03/07 08:14:25;;;;;;;25.83;10.47;;;;;;;-145.69;78.13;73410.66;5094744;28;20202;-75
2022/03/07 08:16:52;;;;;;;22.60;10.77;;;;;;;-145.69;77.21;73400.72;5094405;28;20202;-75
2022/03/07 08:19:20;;;;;;;23.40;10.70;;;;;;;-145.69;77.58;73396.72;5094534;28;20234;-75
2022/03/07 08:21:47;;;;;;;22.07;10.50;;;;;;;-145.69;76.16;73376.81;5094373;28;20691;-75
2022/03/07 08:24:18;;;;;;;24.47;10.97;;;;;;;-145.69;77.13;73368.88;5094259;28;20237;-75
2022/03/07 08:26:53;;;;;;;20.43;10.13;;;;;;;-145.69;75.28;73376.81;5093787;28;20203;-75
2022/03/07 08:29:19;;;;;;;21.37;10.60;;;;;;;-145.69;76.66;73376.81;5094305;28;20244;-73
2022/03/07 08:31:46;;;;;;;21.10;11.13;;;;;;;-145.69;77.07;73352.94;5094149;28;20587;-74
2022/03/07 08:34:15;;;;;;;19.13;10.13;;;;;;;-145.69;73.59;73366.88;5094237;28;20190;-74
2022/03/07 08:36:44;;;;;;;22.93;11.03;;;;;;;-145.69;75.17;73348.97;5094049;28;20198;-74
2022/03/07 08:39:10;;;;;;;24.20;11.27;;;;;;;-145.69;73.89;73339.00;5093854;28;20198;-74
2022/03/07 08:41:39;;;;;;;24.80;11.77;;;;;;;-145.69;72.29;73321.09;5086576;28;20252;-75
2022/03/07 08:44:06;;;;;;;20.10;10.23;;;;;;;-145.69;73.04;73317.09;5073849;28;20226;-75
2022/03/07 08:46:32;;;;;;;25.07;10.97;;;;;;;-145.69;71.54;73307.16;5073437;28;20194;-74
2022/03/07 08:48:59;;;;;;;22.07;10.77;;;;;;;-145.69;72.20;73293.22;5073711;28;20198;-74
2022/03/07 08:51:28;;;;;;;21.03;10.30;;;;;;;-145.69;71.13;73289.22;5073679;28;20590;-75
2022/03/07 08:53:56;;;;;;;21.73;11.67;;;;;;;-145.69;71.34;73285.25;5073564;28;20209;-75
2022/03/07 08:56:23;;;;;;;27.40;10.87;;;;;;;-145.69;70.31;73281.25;5073395;28;20198;-74
2022/03/07 08:58:52;;;;;;;27.47;11.87;;;;;;;-145.69;71.04;73259.38;5086261;28;20216;-75
2022/03/07 09:01:20;;;;;;;23.70;10.87;;;;;;;-145.69;71.14;73255.38;5093647;28;20244;-75
2022/03/07 09:03:49;;;;;;;23.10;11.10;;;;;;;-145.69;70.67;73253.41;5093601;28;20235;-74
2022/03/07 09:06:16;;;;;;;19.33;10.37;;;;;;;-145.69;69.59;73267.34;5093580;28;20201;-76
2022/03/07 09:08:43;;;;;;;24.10;11.40;;;;;;;-145.69;69.31;73297.19;5093426;28;20194;-75
2022/03/07 09:11:09;;;;;;;24.30;10.83;;;;;;;-145.69;69.32;73269.31;5093916;28;20216;-74
2022/03/07 09:13:37;;;;;;;25.73;12.98;;;;;;;-145.69;68.20;73289.22;5092609;28;20433;-75
2022/03/07 09:16:05;;;;;;;20.20;11.23;;;;;;;-145.69;69.57;73285.25;5093499;28;20198;-75
2022/03/07 09:18:35;;;;;;;19.17;9.93;;;;;;;-145.69;70.03;73273.31;5093506;28;20202;-76
2022/03/07 09:21:02;;;;;;;21.60;11.40;;;;;;;-145.69;70.49;73265.34;5093224;28;20229;-76
2022/03/07 09:23:33;;;;;;;21.10;10.43;;;;;;;-145.69;68.67;73249.41;5093196;28;20294;-76
2022/03/07 09:26:01;;;;;;;21.67;10.47;;;;;;;-145.69;66.84;73229.50;5083494;28;20229;-76
2022/03/07 09:28:28;;;;;;;21.23;10.57;;;;;;;-145.69;70.08;73205.63;5073048;28;20211;-76
2022/03/07 09:30:54;;;;;;;23.83;10.67;;;;;;;-145.69;66.90;73203.63;5072863;28;20194;-75
2022/03/07 09:33:24;;;;;;;21.93;10.67;;;;;;;-145.69;66.87;73247.41;5072957;28;20205;-76
2022/03/07 09:35:53;;;;;;;22.40;9.83;;;;;;;-145.69;67.33;73273.31;5072724;28;20663;-75
2022/03/07 09:38:24;;;;;;;21.00;10.30;;;;;;;-145.69;68.46;73273.31;5073027;28;20539;-75
2022/03/07 09:40:52;;;;;;;19.93;10.10;;;;;;;-145.69;65.94;73255.38;5072624;28;20557;-75
2022/03/07 09:43:21;;;;;;;23.00;10.87;;;;;;;-145.69;66.71;73241.44;5079999;28;20194;-75
2022/03/07 09:45:50;;;;;;;20.07;9.83;;;;;;;-145.69;65.28;73227.50;5092545;28;20230;-74
2022/03/07 09:48:17;;;;;;;24.43;10.87;;;;;;;-145.69;65.26;73219.56;5092872;28;20233;-74
2022/03/07 09:50:52;;;;;;;22.05;11.85;;;;;;;-145.69;63.73;73229.50;5091905;28;20440;-74
2022/03/07 09:53:22;;;;;;;19.90;10.97;;;;;;;-145.69;64.49;73205.63;5092648;28;20317;-73
2022/03/07 09:55:49;;;;;;;20.47;10.50;;;;;;;-145.69;63.54;73185.72;5092193;28;20603;-73
2022/03/07 09:58:17;;;;;;;25.10;10.70;;;;;;;-145.69;62.76;73185.72;5092741;28;20186;-73
2022/03/07 10:00:47;;;;;;;20.27;10.33;;;;;;;-145.69;61.35;73157.84;5092820;28;20568;-75
2022/03/07 10:03:18;;;;;;;23.63;11.17;;;;;;;-145.69;61.50;73126.00;5093052;28;20280;-74
2022/03/07 10:05:50;;;;;;;20.90;10.23;;;;;;;-145.69;60.16;73084.19;5092593;28;20700;-75
2022/03/07 10:08:24;;;;;;;19.23;9.90;;;;;;;-145.69;56.28;73042.38;5092874;28;20224;-74
2022/03/07 10:10:52;;;;;;;20.63;10.67;;;;;;;-145.69;56.00;73016.50;5092574;28;20251;-75
2022/03/07 10:13:23;;;;;;;21.67;10.07;;;;;;;-145.69;60.12;72970.72;5092717;28;20198;-73
2022/03/07 10:16:00;;;;;;;21.27;9.73;;;;;;;-145.69;54.46;72994.59;5092825;28;20205;-75
2022/03/07 10:18:31;;;;;;;21.80;9.97;;;;;;;-145.69;52.87;72998.59;5092775;28;20457;-75
2022/03/07 10:21:04;;;;;;;18.60;8.87;;;;;;;-145.69;53.85;72970.72;5092522;28;20229;-75
2022/03/07 10:23:34;;;;;;;19.47;9.77;;;;;;;-145.69;52.44;72932.91;5092785;28;20197;-77
2022/03/07 10:26:07;;;;;;;17.90;9.27;;;;;;;-145.69;51.03;72934.88;5092363;28;20225;-75
2022/03/07 10:28:35;;;;;;;19.30;9.47;;;;;;;-145.69;51.97;72930.91;5103878;28;20198;-75
2022/03/07 10:31:12;;;;;;;20.73;9.93;;;;;;;-145.69;52.08;72932.91;5093126;28;20251;-74
2022/03/07 10:33:40;;;;;;;19.00;9.57;;;;;;;-145.69;53.30;72938.88;5093813;28;20243;-76
2022/03/07 10:36:08;;;;;;;18.73;9.60;;;;;;;-145.69;51.03;72930.91;5092563;28;20206;-75
2022/03/07 10:38:35;;;;;;;23.93;9.23;;;;;;;-145.69;49.37;72887.09;5092519;28;20225;-76
2022/03/07 10:41:04;;;;;;;18.30;9.60;;;;;;;-145.69;50.16;72835.34;5092724;28;20194;-76
2022/03/07 10:43:34;;;;;;;16.43;8.87;;;;;;;-145.69;47.79;72849.28;5092608;28;20700;-75
2022/03/07 10:46:03;;;;;;;21.17;9.20;;;;;;;-145.69;49.10;72873.19;5092527;28;20233;-76
2022/03/07 10:48:41;;;;;;;23.47;9.90;;;;;;;-145.69;49.83;72895.06;5092618;28;20223;-76
2022/03/07 10:51:27;;;;;;;16.17;8.70;;;;;;;-145.69;48.43;72911.00;5092540;28;20206;-76
2022/03/07 10:53:55;;;;;;;16.37;8.20;;;;;;;-145.69;49.44;72944.84;5092397;28;20605;-75
2022/03/07 10:56:23;;;;;;;17.30;9.43;;;;;;;-145.69;50.34;72990.63;5092531;28;20202;-75
2022/03/07 10:58:52;;;;;;;20.00;9.13;;;;;;;-145.69;51.93;73018.50;5093486;28;20202;-75
2022/03/07 11:01:28;;;;;;;21.07;9.63;;;;;;;-145.69;51.07;73026.44;5092477;28;20252;-75
2022/03/07 11:03:56;;;;;;;19.90;9.67;;;;;;;-145.69;51.59;73048.34;5095972;28;20729;-75
2022/03/07 11:06:25;;;;;;;17.80;9.60;;;;;;;-145.69;54.44;72982.66;5095756;28;20799;-75
2022/03/07 11:08:52;;;;;;;21.10;10.17;;;;;;;-145.69;54.70;72982.66;5095923;28;20667;-75